地図

経路データ

SID SEASON NUMBER BASIN SUBBASIN NAME ISO_TIME NATURE LAT LON WMO_WIND WMO_PRES WMO_AGENCY TRACK_TYPE DIST2LAND LANDFALL IFLAG USA_AGENCY USA_ATCF_ID USA_LAT USA_LON USA_RECORD USA_STATUS USA_WIND USA_PRES USA_SSHS USA_R34_NE USA_R34_SE USA_R34_SW USA_R34_NW USA_R50_NE USA_R50_SE USA_R50_SW USA_R50_NW USA_R64_NE USA_R64_SE USA_R64_SW USA_R64_NW USA_POCI USA_ROCI USA_RMW USA_EYE TOKYO_LAT TOKYO_LON TOKYO_GRADE TOKYO_WIND TOKYO_PRES TOKYO_R50_DIR TOKYO_R50_LONG TOKYO_R50_SHORT TOKYO_R30_DIR TOKYO_R30_LONG TOKYO_R30_SHORT TOKYO_LAND CMA_LAT CMA_LON CMA_CAT CMA_WIND CMA_PRES HKO_LAT HKO_LON HKO_CAT HKO_WIND HKO_PRES NEWDELHI_LAT NEWDELHI_LON NEWDELHI_GRADE NEWDELHI_WIND NEWDELHI_PRES NEWDELHI_CI NEWDELHI_DP NEWDELHI_POCI REUNION_LAT REUNION_LON REUNION_TYPE REUNION_WIND REUNION_PRES REUNION_TNUM REUNION_CI REUNION_RMW REUNION_R34_NE REUNION_R34_SE REUNION_R34_SW REUNION_R34_NW REUNION_R50_NE REUNION_R50_SE REUNION_R50_SW REUNION_R50_NW REUNION_R64_NE REUNION_R64_SE REUNION_R64_SW REUNION_R64_NW BOM_LAT BOM_LON BOM_TYPE BOM_WIND BOM_PRES BOM_TNUM BOM_CI BOM_RMW BOM_R34_NE BOM_R34_SE BOM_R34_SW BOM_R34_NW BOM_R50_NE BOM_R50_SE BOM_R50_SW BOM_R50_NW BOM_R64_NE BOM_R64_SE BOM_R64_SW BOM_R64_NW BOM_ROCI BOM_POCI BOM_EYE BOM_POS_METHOD BOM_PRES_METHOD NADI_LAT NADI_LON NADI_CAT NADI_WIND NADI_PRES WELLINGTON_LAT WELLINGTON_LON WELLINGTON_WIND WELLINGTON_PRES DS824_LAT DS824_LON DS824_STAGE DS824_WIND DS824_PRES TD9636_LAT TD9636_LON TD9636_STAGE TD9636_WIND TD9636_PRES TD9635_LAT TD9635_LON TD9635_WIND TD9635_PRES TD9635_ROCI NEUMANN_LAT NEUMANN_LON NEUMANN_CLASS NEUMANN_WIND NEUMANN_PRES MLC_LAT MLC_LON MLC_CLASS MLC_WIND MLC_PRES USA_GUST BOM_GUST BOM_GUST_PER REUNION_GUST REUNION_GUST_PER USA_SEAHGT USA_SEARAD_NE USA_SEARAD_SE USA_SEARAD_SW USA_SEARAD_NW STORM_SPEED STORM_DIR
1886280N35291 1886 39 NA NA NOT_NAMED 1886-10-06 12:00:00 SS 34.5000 -69.0000 main 607 604 _____________O -1 34.5000 -69.0000 SS 35 4 22
1886280N35291 1886 39 NA NA NOT_NAMED 1886-10-06 15:00:00 SS 34.6600 -68.9126 main 610 610 _____________P -1 34.6600 -68.9126 SS 35 3 28
1886280N35291 1886 39 NA NA NOT_NAMED 1886-10-06 18:00:00 SS 34.8000 -68.8000 main 616 616 _____________O -1 34.8000 -68.8000 SS 35 3 41
1886280N35291 1886 39 NA NA NOT_NAMED 1886-10-06 21:00:00 SS 34.9075 -68.6500 main 632 630 _____________P -1 34.9075 -68.6500 SS 37 3 51
1886280N35291 1886 39 NA NA NOT_NAMED 1886-10-07 00:00:00 SS 35.0000 -68.5000 main 639 639 _____________O -1 35.0000 -68.5000 SS 40 3 48
1886280N35291 1886 39 NA NA NOT_NAMED 1886-10-07 03:00:00 SS 35.0924 -68.3999 main 646 646 _____________P -1 35.0925 -68.3999 SS 40 3 40
1886280N35291 1886 39 NA NA NOT_NAMED 1886-10-07 06:00:00 SS 35.2000 -68.3000 main 653 652 _____________O -1 35.2000 -68.3000 SS 40 3 27
1886280N35291 1886 39 NA NA NOT_NAMED 1886-10-07 09:00:00 SS 35.3645 -68.2250 main 659 659 _____________P -1 35.3645 -68.2250 SS 40 4 39
1886280N35291 1886 39 NA NA NOT_NAMED 1886-10-07 12:00:00 TS 35.5000 -68.0000 main 676 676 _____________O -1 35.5000 -68.0000 TS 40 6 76
1886280N35291 1886 39 NA NA NOT_NAMED 1886-10-07 15:00:00 TS 35.5229 -67.4673 main 721 721 _____________P -1 35.5229 -67.4673 TS 40 10 90
1886280N35291 1886 39 NA NA NOT_NAMED 1886-10-07 18:00:00 TS 35.5000 -66.8000 main 743 743 _____________O -1 35.5000 -66.8000 TS 40 10 91
1886280N35291 1886 39 NA NA NOT_NAMED 1886-10-07 21:00:00 TS 35.4997 -66.2000 main 764 764 _____________P -1 35.4997 -66.2000 TS 40 10 90
1886280N35291 1886 39 NA NA NOT_NAMED 1886-10-08 00:00:00 TS 35.5000 -65.6000 main 788 788 _____________O -1 35.5000 -65.6000 TS 40 10 90
1886280N35291 1886 39 NA NA NOT_NAMED 1886-10-08 03:00:00 TS 35.5000 -64.9775 main 814 814 _____________P -1 35.5000 -64.9775 TS 42 10 90
1886280N35291 1886 39 NA NA NOT_NAMED 1886-10-08 06:00:00 TS 35.5000 -64.4000 main 843 843 _____________O -1 35.5000 -64.4000 TS 45 9 88
1886280N35291 1886 39 NA NA NOT_NAMED 1886-10-08 09:00:00 TS 35.5375 -63.8677 main 868 868 _____________P -1 35.5375 -63.8677 TS 45 7 90
1886280N35291 1886 39 NA NA NOT_NAMED 1886-10-08 12:00:00 TS 35.5000 -63.5000 main 890 890 _____________O -1 35.5000 -63.5000 TS 45 5 123
1886280N35291 1886 39 NA NA NOT_NAMED 1886-10-08 15:00:00 TS 35.2872 -63.3901 main 913 913 _____________P -1 35.2872 -63.3901 TS 45 5 171
1886280N35291 1886 39 NA NA NOT_NAMED 1886-10-08 18:00:00 TS 35.0000 -63.4000 main 940 940 _____________O -1 35.0000 -63.4000 TS 45 5 177
1886280N35291 1886 39 NA NA NOT_NAMED 1886-10-08 21:00:00 TS 34.7500 -63.3500 main 958 967 _____________P -1 34.7500 -63.3500 TS 45 5 171
1886280N35291 1886 39 NA NA NOT_NAMED 1886-10-09 00:00:00 TS 34.5000 -63.3000 main 991 991 _____________O -1 34.5000 -63.3000 TS 45 5 171
1886280N35291 1886 39 NA NA NOT_NAMED 1886-10-09 03:00:00 TS 34.2500 -63.2576 main 1019 1019 _____________P -1 34.2500 -63.2576 TS 47 5 171
1886280N35291 1886 39 NA NA NOT_NAMED 1886-10-09 06:00:00 TS 34.0000 -63.2000 main 1043 1043 _____________O -1 34.0000 -63.2000 TS 50 5 166
1886280N35291 1886 39 NA NA NOT_NAMED 1886-10-09 09:00:00 TS 33.7800 -63.1152 main 1066 1066 _____________P -1 33.7800 -63.1152 TS 50 5 161
1886280N35291 1886 39 NA NA NOT_NAMED 1886-10-09 12:00:00 TS 33.5000 -63.0000 main 1100 1100 _____________O -1 33.5000 -63.0000 TS 50 7 163
1886280N35291 1886 39 NA NA NOT_NAMED 1886-10-09 15:00:00 TS 33.0800 -62.8498 main 1147 1147 _____________P -1 33.0800 -62.8498 TS 50 9 165
1886280N35291 1886 39 NA NA NOT_NAMED 1886-10-09 18:00:00 TS 32.6000 -62.7000 main 1200 1200 _____________O -1 32.6000 -62.7000 TS 50 10 167
1886280N35291 1886 39 NA NA NOT_NAMED 1886-10-09 21:00:00 TS 32.1500 -62.5927 main 1253 1253 _____________P -1 32.1500 -62.5927 TS 50 9 170
1886280N35291 1886 39 NA NA NOT_NAMED 1886-10-10 00:00:00 TS 31.7000 -62.5000 main 1282 1282 _____________O -1 31.7000 -62.5000 TS 50 9 170
1886280N35291 1886 39 NA NA NOT_NAMED 1886-10-10 03:00:00 TS 31.2425 -62.4077 main 1314 1314 _____________P -1 31.2425 -62.4077 TS 52 9 169
1886280N35291 1886 39 NA NA NOT_NAMED 1886-10-10 06:00:00 TS 30.8000 -62.3000 main 1343 1343 _____________O -1 30.8000 -62.3000 TS 55 9 163
1886280N35291 1886 39 NA NA NOT_NAMED 1886-10-10 09:00:00 TS 30.3851 -62.1120 main 1381 1346 _____________P -1 30.3851 -62.1120 TS 55 8 162
1886280N35291 1886 39 NA NA NOT_NAMED 1886-10-10 12:00:00 TS 30.0000 -62.0000 main 1346 1311 _____________O -1 30.0000 -62.0000 TS 55 7 0
1886280N35291 1886 39 NA NA NOT_NAMED 1886-10-10 15:00:00 TS 29.6500 -62.1129 main 1311 1263 _____________P -1 29.6500 -62.1129 TS 57 7 200
1886280N35291 1886 39 NA NA NOT_NAMED 1886-10-10 18:00:00 TS 29.3000 -62.3000 main 1263 1217 _____________O -1 29.3000 -62.3000 TS 60 8 199
1886280N35291 1886 39 NA NA NOT_NAMED 1886-10-10 21:00:00 TS 28.9075 -62.3998 main 1217 1172 _____________P -1 28.9075 -62.3998 TS 60 8 193
1886280N35291 1886 39 NA NA NOT_NAMED 1886-10-11 00:00:00 TS 28.5000 -62.5000 main 1172 1126 _____________O -1 28.5000 -62.5000 TS 60 8 195
1886280N35291 1886 39 NA NA NOT_NAMED 1886-10-11 03:00:00 TS 28.0925 -62.6501 main 1123 1078 _____________P -1 28.0925 -62.6501 TS 60 8 198
1886280N35291 1886 39 NA NA NOT_NAMED 1886-10-11 06:00:00 TS 27.7000 -62.8000 main 1078 1032 _____________O -1 27.7000 -62.8000 TS 60 8 197
1886280N35291 1886 39 NA NA NOT_NAMED 1886-10-11 09:00:00 TS 27.3275 -62.9225 main 1032 997 _____________P -1 27.3275 -62.9225 TS 62 7 194
1886280N35291 1886 39 NA NA NOT_NAMED 1886-10-11 12:00:00 TS 27.0000 -63.0000 main 997 965 _____________O -1 27.0000 -63.0000 HU 65 6 187
1886280N35291 1886 39 NA NA NOT_NAMED 1886-10-11 15:00:00 TS 26.7350 -63.0149 main 965 943 _____________P -1 26.7350 -63.0149 HU 65 5 178
1886280N35291 1886 39 NA NA NOT_NAMED 1886-10-11 18:00:00 TS 26.5000 -63.0000 main 943 922 _____________O -1 26.5000 -63.0000 HU 65 5 0
1886280N35291 1886 39 NA NA NOT_NAMED 1886-10-11 21:00:00 TS 26.2500 -63.0000 main 922 890 _____________P -1 26.2500 -63.0000 HU 65 5 178
1886280N35291 1886 39 NA NA NOT_NAMED 1886-10-12 00:00:00 TS 26.0000 -63.0000 main 890 869 _____________O -1 26.0000 -63.0000 HU 65 5 178
1886280N35291 1886 39 NA NA NOT_NAMED 1886-10-12 03:00:00 TS 25.7500 -63.0000 main 869 837 _____________P -1 25.7500 -63.0000 HU 65 5 178
1886280N35291 1886 39 NA NA NOT_NAMED 1886-10-12 06:00:00 TS 25.5000 -63.0000 main 837 806 _____________O -1 25.5000 -63.0000 HU 65 6 0
1886280N35291 1886 39 NA NA NOT_NAMED 1886-10-12 09:00:00 TS 25.1900 -63.0225 main 806 785 _____________P -1 25.1900 -63.0225 HU 65 5 178
1886280N35291 1886 39 NA NA NOT_NAMED 1886-10-12 12:00:00 TS 25.0000 -63.0000 main 785 785 _____________O -1 25.0000 -63.0000 HU 65 2 123
1886280N35291 1886 39 NA NA NOT_NAMED 1886-10-12 15:00:00 TS 25.0975 -62.8652 main 799 799 _____________P -1 25.0975 -62.8652 HU 65 4 42
1886280N35291 1886 39 NA NA NOT_NAMED 1886-10-12 18:00:00 TS 25.3000 -62.7000 main 827 827 _____________O -1 25.3000 -62.7000 HU 65 4 39
1886280N35291 1886 39 NA NA NOT_NAMED 1886-10-12 21:00:00 TS 25.4000 -62.5924 main 841 841 _____________P -1 25.4000 -62.5924 HU 65 3 42
1886280N35291 1886 39 NA NA NOT_NAMED 1886-10-13 00:00:00 TS 25.5000 -62.5000 main 855 855 _____________O -1 25.5000 -62.5000 HU 65 3 34
1886280N35291 1886 39 NA NA NOT_NAMED 1886-10-13 03:00:00 TS 25.6500 -62.4075 main 869 869 _____________P -1 25.6500 -62.4075 HU 65 4 31
1886280N35291 1886 39 NA NA NOT_NAMED 1886-10-13 06:00:00 TS 25.8000 -62.3000 main 894 894 _____________O -1 25.8000 -62.3000 HU 65 2 35
1886280N35291 1886 39 NA NA NOT_NAMED 1886-10-13 09:00:00 TS 25.8088 -62.2827 main 894 894 _____________P -1 25.8088 -62.2827 HU 65 3 54
1886280N35291 1886 39 NA NA NOT_NAMED 1886-10-13 12:00:00 TS 26.0000 -62.0000 main 926 926 _____________O -1 26.0000 -62.0000 HU 65 13 51
1886280N35291 1886 39 NA NA NOT_NAMED 1886-10-13 15:00:00 TS 26.6538 -61.1295 main 1036 1036 _____________P -1 26.6538 -61.1295 HU 65 23 50
1886280N35291 1886 39 NA NA NOT_NAMED 1886-10-13 18:00:00 TS 27.5000 -60.0000 main 1167 1167 _____________O -1 27.5000 -60.0000 HU 65 24 49
1886280N35291 1886 39 NA NA NOT_NAMED 1886-10-13 21:00:00 TS 28.2467 -59.0938 main 1279 1279 _____________P -1 28.2467 -59.0938 HU 65 23 50
1886280N35291 1886 39 NA NA NOT_NAMED 1886-10-14 00:00:00 TS 29.0000 -58.0000 main 1413 1413 _____________O -1 29.0000 -58.0000 HU 65 28 57
1886280N35291 1886 39 NA NA NOT_NAMED 1886-10-14 03:00:00 TS 29.7514 -56.4396 main 1577 1577 _____________P -1 29.7514 -56.4396 HU 65 32 62
1886280N35291 1886 39 NA NA NOT_NAMED 1886-10-14 06:00:00 TS 30.5000 -54.7000 main 1722 1702 _____________O -1 30.5000 -54.7000 HU 65 33 63
1886280N35291 1886 39 NA NA NOT_NAMED 1886-10-14 09:00:00 TS 31.2657 -52.9956 main 1698 1630 _____________P -1 31.2657 -52.9956 HU 65 31 61
1886280N35291 1886 39 NA NA NOT_NAMED 1886-10-14 12:00:00 TS 32.0000 -51.5000 main 1631 1573 _____________O -1 32.0000 -51.5000 HU 65 26 57
1886280N35291 1886 39 NA NA NOT_NAMED 1886-10-14 15:00:00 TS 32.6690 -50.4488 main 1565 1511 _____________P -1 32.6690 -50.4488 HU 60 21 51
1886280N35291 1886 39 NA NA NOT_NAMED 1886-10-14 18:00:00 TS 33.3000 -49.6000 main 1511 1463 _____________O -1 33.3000 -49.6000 TS 55 19 51
1886280N35291 1886 39 NA NA NOT_NAMED 1886-10-14 21:00:00 TS 33.8993 -48.6482 main 1465 1420 _____________P -1 33.8993 -48.6482 TS 52 20 53
1886280N35291 1886 39 NA NA NOT_NAMED 1886-10-15 00:00:00 TS 34.5000 -47.7000 main 1422 1386 _____________O -1 34.5000 -47.7000 TS 50 20 51
1886280N35291 1886 39 NA NA NOT_NAMED 1886-10-15 03:00:00 TS 35.1494 -46.7417 main 1389 1345 _____________P -1 35.1494 -46.7417 TS 47 20 50
1886280N35291 1886 39 NA NA NOT_NAMED 1886-10-15 06:00:00 TS 35.8000 -45.8000 main 1349 1330 _____________O -1 35.8000 -45.8000 TS 45 21 52
1886280N35291 1886 39 NA NA NOT_NAMED 1886-10-15 09:00:00 TS 36.4087 -44.7223 main 1334 1308 _____________P -1 36.4087 -44.7223 TS 42 19 50
1886280N35291 1886 39 NA NA NOT_NAMED 1886-10-15 12:00:00 ET 37.0000 -44.0000 main 1308 1252 _____________O -1 37.0000 -44.0000 EX 40 13 24
1886280N35291 1886 39 NA NA NOT_NAMED 1886-10-15 15:00:00 ET 37.5991 -44.0592 main 1247 1172 _____________P -1 37.5991 -44.0592 EX 40 13 342
1886280N35291 1886 39 NA NA NOT_NAMED 1886-10-15 18:00:00 ET 38.2000 -44.5000 main 1172 1098 _____________O -1 38.2000 -44.5000 EX 40 14 332
1886280N35291 1886 39 NA NA NOT_NAMED 1886-10-15 21:00:00 ET 38.8002 -44.8883 main 1098 1029 _____________P -1 38.8002 -44.8883 EX 35 13 336
1886280N35291 1886 39 NA NA NOT_NAMED 1886-10-16 00:00:00 ET 39.4000 -45.2000 main 1029 _____________O -1 39.4000 -45.2000 EX 30 13 338

IBTrACS Databaseについて

本データベースは、米国NOAAが公開する1842年以降の世界の熱帯低気圧のベストトラックデータアーカイブInternational Best Track Archive for Climate Stewardship (IBTrACS)を、ウェブで閲覧しやすい形式に変換したものです。

最終更新日:2021-11-26